Airfield :
LOGIN :

Register | Disclaimer

   EN    FR    IT 

 










Legend :    VFR   Marginal VFR   IFR   Intensive IFR   Very Intensive IFR
Visi :
Ceiling :
>= 8 km
>= 3000ft
5 to 8 km
1000 to 3000 ft
1500m to 5 km
500 to 1000 ft
800 to 1500m
200 to 500 ft
< 800m
< 200 ft
Symbols :   Thunderstorms  Fog  Heavy snow  Heavy precipitations  Wind > 20 kt
SIGMETs :     Misc.  Thunderstorms  Icing  Turbulence  Mountain Waves  Volcanic Ashes






- Airport Elevation : 7 ft
- IATA code : XHE


LFTH - Hyeres

CURRENT METAR :
  • 110030Z AUTO 03006KT CAVOK 04/M01 Q1020 NOSIG

EXPIRED METARs :
  • 110000Z AUTO 01004KT 340V050 CAVOK 06/M00 Q1020 NOSIG
  • 102330Z AUTO 36004KT 320V030 CAVOK 06/M00 Q1020 NOSIG
  • 102300Z AUTO 33006KT CAVOK 06/M01 Q1020 NOSIG
  • 102230Z AUTO 36004KT CAVOK 05/M01 Q1020 NOSIG
  • 102200Z AUTO 36004KT 320V020 CAVOK 06/M01 Q1020 NOSIG

TAF TAF LFTH
Valid from the 10 at 21:00 until the 11 at 21:00 UTC


102000Z 1021/1121 33004KT CAVOK
BECMG 1113/1116 27010KT
PROB30
TEMPO 1118/1121 30015G25KT RA BKN060



MET'MAP, your aeronautical weather chart ! - Copyright ORBIFLY December 2007 - Disclaimer

ORBIFLY MET'MAP TEAM :

Programming & Development : Alexandra Zaïnal
Concept & original design : Baudouin d'Aumeries
Assistance for programming : Marc-Olivier Méhu
Technical & hardware support : Manuel Goepfert

Contact : metmap@orbifly.com




SOURCES & CREDITS :

   NOAA